createdAt,value
2022-11-11T00:01:05.306Z,8.30
2022-11-11T00:06:25.348Z,8.57
2022-11-11T00:11:45.494Z,8.07
2022-11-11T00:17:24.692Z,8.33
2022-11-11T00:23:03.603Z,7.37
2022-11-11T00:28:24.364Z,9.13
2022-11-11T00:33:44.926Z,9.67
2022-11-11T00:39:05.343Z,8.67
2022-11-11T00:44:27.120Z,9.07
2022-11-11T00:50:05.934Z,7.93
2022-11-11T00:55:26.461Z,7.47
2022-11-11T01:00:47.418Z,8.00
2022-11-11T01:06:09.845Z,9.93
2022-11-11T01:11:30.375Z,10.00
2022-11-11T01:16:50.997Z,9.70
2022-11-11T01:22:11.469Z,10.27
2022-11-11T01:27:34.356Z,9.63
2022-11-11T01:32:54.788Z,8.73
2022-11-11T01:38:15.422Z,9.97
2022-11-11T01:43:35.781Z,9.60
2022-11-11T01:49:21.743Z,8.80
2022-11-11T01:54:42.423Z,10.17
2022-11-11T02:00:07.942Z,9.37
2022-11-11T02:05:44.851Z,6.97
2022-11-11T02:11:07.287Z,7.73
2022-11-11T02:16:28.718Z,8.10
2022-11-11T02:21:58.407Z,8.63
2022-11-11T02:27:19.302Z,7.00
2022-11-11T02:32:39.679Z,6.60
2022-11-11T02:38:01.699Z,6.73
2022-11-11T02:43:22.832Z,6.93
2022-11-11T02:48:43.661Z,6.60
2022-11-11T02:54:04.087Z,6.33
2022-11-11T02:59:24.370Z,7.60
2022-11-11T03:04:44.933Z,7.33
2022-11-11T03:10:05.598Z,6.93
2022-11-11T03:15:25.794Z,8.00
2022-11-11T03:21:35.576Z,7.87
2022-11-11T03:26:44.932Z,8.87
2022-11-11T03:32:06.666Z,7.30
2022-11-11T03:37:45.856Z,7.33
2022-11-11T03:43:06.797Z,7.83
2022-11-11T03:48:29.616Z,7.07
2022-11-11T03:53:49.946Z,6.67
2022-11-11T03:59:10.354Z,6.63
2022-11-11T04:04:49.514Z,7.27
2022-11-11T04:10:25.139Z,7.40
2022-11-11T04:16:04.189Z,7.27
2022-11-11T04:21:43.287Z,6.90
2022-11-11T04:27:06.758Z,6.57
2022-11-11T04:32:36.051Z,7.10
2022-11-11T04:38:16.259Z,6.10
2022-11-11T04:43:56.570Z,6.50
2022-11-11T04:49:17.245Z,6.20
2022-11-11T04:54:57.574Z,7.17
2022-11-11T05:00:19.051Z,6.40
2022-11-11T05:05:58.301Z,6.63
2022-11-11T05:11:19.760Z,5.73
2022-11-11T05:17:01.551Z,6.50
2022-11-11T05:22:26.663Z,6.93
2022-11-11T05:27:46.935Z,6.60
2022-11-11T05:33:07.681Z,5.87
2022-11-11T05:38:30.095Z,6.07
2022-11-11T05:43:50.263Z,5.93
2022-11-11T05:49:16.734Z,5.93
2022-11-11T05:54:37.146Z,6.83
2022-11-11T05:59:58.995Z,7.10
2022-11-11T06:05:19.011Z,6.20
2022-11-11T06:10:39.395Z,7.57
2022-11-11T06:16:00.709Z,7.53
2022-11-11T06:21:21.115Z,8.13
2022-11-11T06:26:41.759Z,7.73
2022-11-11T06:32:02.234Z,7.70
2022-11-11T06:37:22.721Z,7.77
2022-11-11T06:42:43.275Z,9.33
2022-11-11T06:48:05.071Z,8.77
2022-11-11T06:53:25.473Z,8.63
2022-11-11T06:58:46.519Z,10.03
2022-11-11T07:04:07.025Z,10.93
2022-11-11T07:09:28.776Z,9.67
2022-11-11T07:14:49.407Z,9.13
2022-11-11T07:20:10.571Z,9.43
2022-11-11T07:25:31.303Z,10.20
2022-11-11T07:30:51.632Z,11.80
2022-11-11T07:36:15.224Z,9.70
2022-11-11T07:41:35.683Z,10.07
2022-11-11T07:46:56.319Z,10.50
2022-11-11T07:52:16.949Z,9.20
2022-11-11T07:57:37.810Z,9.43
2022-11-11T08:02:59.201Z,9.57
2022-11-11T08:08:25.480Z,9.13
2022-11-11T08:13:46.695Z,8.90
2022-11-11T08:19:07.301Z,8.00
2022-11-11T08:30:09.826Z,7.87
2022-11-11T08:35:31.347Z,7.57
2022-11-11T08:40:52.623Z,8.07
2022-11-11T08:46:13.003Z,8.17
2022-11-11T08:51:41.895Z,7.00
2022-11-11T08:57:04.210Z,7.80
2022-11-11T09:02:24.717Z,7.37
2022-11-11T09:07:45.092Z,7.10
2022-11-11T09:13:06.063Z,6.13
2022-11-11T09:18:27.498Z,5.80
2022-11-11T09:23:48.637Z,5.10
2022-11-11T09:29:09.155Z,5.00
2022-11-11T09:34:29.732Z,4.10
2022-11-11T09:39:50.434Z,5.13
2022-11-11T09:45:29.465Z,4.50
2022-11-11T09:50:54.946Z,4.57
2022-11-11T09:56:35.476Z,3.97
2022-11-11T10:01:58.442Z,3.60
2022-11-11T10:07:27.895Z,3.00
2022-11-11T10:12:55.822Z,3.23
2022-11-11T10:18:42.327Z,2.70
2022-11-11T10:24:11.218Z,2.45
2022-11-11T10:29:44.481Z,2.00
2022-11-11T10:35:20.078Z,1.95
2022-11-11T10:40:56.002Z,1.30
2022-11-11T10:46:27.135Z,1.98
2022-11-11T10:51:52.972Z,1.23
2022-11-11T10:57:38.643Z,1.48
2022-11-11T11:03:19.486Z,1.60
2022-11-11T11:08:49.657Z,1.50
2022-11-11T11:14:19.623Z,1.70
2022-11-11T11:19:43.099Z,1.30
2022-11-11T11:25:13.250Z,1.77
2022-11-11T11:30:33.947Z,1.58
2022-11-11T11:35:54.436Z,1.20
2022-11-11T11:41:15.019Z,1.00
2022-11-11T11:46:35.167Z,1.40
2022-11-11T11:52:18.508Z,1.83
2022-11-11T11:57:53.175Z,1.50
2022-11-11T12:03:25.751Z,2.30
2022-11-11T12:08:51.834Z,1.15
2022-11-11T12:14:27.261Z,1.40
2022-11-11T12:19:57.735Z,1.60
2022-11-11T12:25:27.223Z,1.45
2022-11-11T12:31:05.887Z,1.15
2022-11-11T12:36:51.438Z,1.50
2022-11-11T12:42:32.014Z,1.80
2022-11-11T12:48:03.396Z,1.45
2022-11-11T12:53:51.859Z,2.33
2022-11-11T12:59:42.313Z,4.03
2022-11-11T13:05:26.126Z,2.08
2022-11-11T13:11:13.988Z,2.78
2022-11-11T13:16:34.315Z,1.50
2022-11-11T13:21:59.072Z,1.00
2022-11-11T13:27:31.780Z,1.35
2022-11-11T13:32:58.947Z,1.10
2022-11-11T13:38:47.342Z,1.58
2022-11-11T13:44:09.834Z,1.30
2022-11-11T13:49:38.106Z,1.75
2022-11-11T13:55:02.451Z,1.30
2022-11-11T14:00:22.684Z,1.80
2022-11-11T14:05:44.023Z,1.83
2022-11-11T14:11:04.331Z,1.38
2022-11-11T14:16:36.435Z,1.42
2022-11-11T14:21:59.850Z,1.35
2022-11-11T14:27:27.053Z,1.40
2022-11-11T14:33:21.162Z,1.17
2022-11-11T14:39:06.751Z,1.42
2022-11-11T14:44:29.976Z,1.40
2022-11-11T14:49:55.634Z,2.70
2022-11-11T14:55:18.419Z,2.20
2022-11-11T15:01:07.126Z,1.60
2022-11-11T15:06:41.611Z,1.70
2022-11-11T15:12:08.089Z,2.30
2022-11-11T15:17:42.612Z,1.53
2022-11-11T15:23:02.692Z,2.07
2022-11-11T15:28:42.036Z,2.93
2022-11-11T15:34:33.163Z,3.40
2022-11-11T15:39:57.495Z,2.17
2022-11-11T15:45:17.759Z,2.57
2022-11-11T15:50:38.083Z,2.50
2022-11-11T15:56:00.646Z,2.37
2022-11-11T16:01:25.795Z,2.77
2022-11-11T16:06:47.245Z,4.33
2022-11-11T16:12:11.636Z,4.13
2022-11-11T16:17:38.966Z,6.40
2022-11-11T16:23:02.726Z,4.80
2022-11-11T16:28:23.239Z,4.97
2022-11-11T16:33:43.452Z,4.10
2022-11-11T16:39:20.799Z,5.20
2022-11-11T16:45:01.263Z,5.00
2022-11-11T16:50:27.469Z,17.07
2022-11-11T16:55:47.584Z,10.00
2022-11-11T17:01:08.717Z,9.23
2022-11-11T17:06:49.571Z,11.43
2022-11-11T17:12:10.271Z,8.90
2022-11-11T17:17:31.039Z,8.37
2022-11-11T17:22:57.707Z,8.77
2022-11-11T17:28:19.310Z,8.77
2022-11-11T17:33:39.847Z,8.93
2022-11-11T17:39:00.330Z,14.97
2022-11-11T17:44:20.859Z,13.97
2022-11-11T17:49:56.169Z,14.57
2022-11-11T17:55:17.624Z,11.30
2022-11-11T18:00:37.927Z,9.83
2022-11-11T18:05:58.324Z,9.10
2022-11-11T18:11:18.626Z,11.17
2022-11-11T18:16:39.259Z,10.43
2022-11-11T18:21:59.767Z,10.87
2022-11-11T18:27:20.397Z,12.37
2022-11-11T18:32:40.863Z,13.07
2022-11-11T18:38:01.358Z,13.60
2022-11-11T18:43:22.155Z,12.23
2022-11-11T18:48:43.368Z,12.20
2022-11-11T18:54:03.779Z,11.63
2022-11-11T18:59:24.037Z,11.80
2022-11-11T19:04:44.637Z,11.43
2022-11-11T19:10:05.490Z,10.93
2022-11-11T19:15:25.966Z,10.77
2022-11-11T19:20:46.584Z,10.23
2022-11-11T19:26:07.957Z,13.07
2022-11-11T19:31:29.903Z,10.63
2022-11-11T19:36:50.404Z,10.37
2022-11-11T19:42:10.883Z,11.70
2022-11-11T19:47:31.302Z,13.33
2022-11-11T19:52:51.727Z,12.33
2022-11-11T19:58:12.286Z,11.60
2022-11-11T20:03:34.625Z,12.53
2022-11-11T20:08:56.332Z,10.90
2022-11-11T20:14:16.996Z,10.40
2022-11-11T20:19:37.540Z,11.03
2022-11-11T20:24:58.116Z,10.37
2022-11-11T20:30:18.878Z,10.20
2022-11-11T20:35:39.772Z,9.70
2022-11-11T20:41:04.896Z,12.13
2022-11-11T20:46:25.296Z,9.37
2022-11-11T20:51:45.671Z,10.37
2022-11-11T20:57:06.327Z,13.07
2022-11-11T21:02:27.302Z,11.77
2022-11-11T21:07:50.746Z,10.77
2022-11-11T21:13:11.223Z,10.73
2022-11-11T21:18:31.876Z,10.33
2022-11-11T21:24:01.668Z,10.37
2022-11-11T21:29:22.004Z,8.43
2022-11-11T21:34:42.655Z,8.80
2022-11-11T21:40:03.323Z,8.63
2022-11-11T21:45:23.584Z,9.43
2022-11-11T21:50:44.040Z,9.17
2022-11-11T21:56:07.083Z,9.37
2022-11-11T22:01:30.785Z,8.57
2022-11-11T22:06:51.356Z,8.17
2022-11-11T22:12:11.857Z,6.97
2022-11-11T22:17:32.412Z,7.57
2022-11-11T22:22:53.072Z,7.23
2022-11-11T22:28:13.731Z,7.30
2022-11-11T22:33:35.068Z,10.97
2022-11-11T22:38:55.771Z,10.87
2022-11-11T22:44:16.548Z,10.10
2022-11-11T22:49:37.187Z,10.00
2022-11-11T22:54:57.823Z,9.43
2022-11-11T23:00:18.553Z,8.93
2022-11-11T23:05:39.079Z,8.67
2022-11-11T23:11:13.494Z,9.67
2022-11-11T23:16:34.672Z,9.67
2022-11-11T23:21:54.731Z,9.13
2022-11-11T23:27:15.277Z,8.50
2022-11-11T23:32:35.729Z,9.47
2022-11-11T23:37:56.348Z,8.80
2022-11-11T23:43:16.872Z,8.17
2022-11-11T23:48:37.408Z,9.70
2022-11-11T23:53:58.093Z,11.93
2022-11-11T23:59:18.696Z,11.40
